Airfield :
LOGIN :

Register | Disclaimer

   EN    FR    IT 

 










Legend :    VFR   Marginal VFR   IFR   Intensive IFR   Very Intensive IFR
Visi :
Ceiling :
>= 8 km
>= 3000ft
5 to 8 km
1000 to 3000 ft
1500m to 5 km
500 to 1000 ft
800 to 1500m
200 to 500 ft
< 800m
< 200 ft
Symbols :   Thunderstorms  Fog  Heavy snow  Heavy precipitations  Wind > 20 kt
SIGMETs :     Misc.  Thunderstorms  Icing  Turbulence  Mountain Waves  Volcanic Ashes







- Airport Elevation : 3 ft
- IATA code : LWR


EHLW - Leuuwarden Air Base

CURRENT METAR :
  • 221025Z AUTO 14010KT 110V170 9999 OVC310 20/10 Q1008 BLU

EXPIRED METARs :
  • 220955Z AUTO 14009KT 090V170 9999 OVC310 20/10 Q1008 BLU
  • 220925Z AUTO 13011KT 090V160 9999 OVC330 19/09 Q1009 BLU
  • 220855Z AUTO 13007KT 090V160 9999 OVC360 18/10 Q1009 BLU
  • 220825Z AUTO 13007KT 080V170 9999 OVC370 17/09 Q1009 BLU
  • 220755Z AUTO 12008KT 080V150 9999 SCT380 16/09 Q1010 BLU

TAF TAF EHLW
Valid from the 22 at 09:00 until the 22 at 21:00 UTC


220833Z 2209/2221 13008KT CAVOK
PROB30
TEMPO 2219/2221 SCT045CB BKN080
No reported NOTAMs for that airfield.



MET'MAP, your aeronautical weather chart ! - Copyright ORBIFLY December 2007 - Disclaimer

ORBIFLY MET'MAP TEAM :

Programming & Development : Alexandra Zaïnal
Concept & Development : Baudouin d'Aumeries
Co-Development & Prog : Marc-Olivier Méhu
Technical & hardware support : Manuel Goepfert

Contact : metmap@orbifly.com




SOURCES & CREDITS :

   NOAA